Time;durP1;ratioP1;P1;durP2;ratioP2;P2;SDS_P1;SDS_P2;PMS_P1;PMS_P2;Temp;Humidity;BMP_temperature;BMP_pressure;BME280_temperature;BME280_humidity;BME280_pressure;Samples;Min_cycle;Max_cycle;Signal;HPM_P1;HPM_P2
2023/04/03 00:03:22;;;;;;;1.48;0.32;;;;;;;7.40;64.52;101416.41;10111742;29;20040;-73
2023/04/03 00:08:23;;;;;;;6.32;1.45;;;;;;;7.45;64.20;101418.72;10110451;29;20099;-73
2023/04/03 00:13:25;;;;;;;2.35;0.40;;;;;;;7.48;63.68;101424.63;10111323;29;20060;-72
2023/04/03 00:18:26;;;;;;;1.20;0.30;;;;;;;7.57;63.46;101424.84;10110559;29;20140;-72
2023/04/03 00:23:27;;;;;;;2.10;0.40;;;;;;;7.62;63.13;101426.16;10109074;29;20082;-73
2023/04/03 00:28:31;;;;;;;2.45;0.50;;;;;;;7.72;63.15;101432.44;10109160;29;20095;-73
2023/04/03 00:33:32;;;;;;;1.65;0.68;;;;;;;7.73;63.31;101426.06;10104721;29;20100;-73
2023/04/03 00:38:34;;;;;;;2.20;0.30;;;;;;;7.68;63.37;101431.00;10108084;29;20093;-73
2023/04/03 00:43:36;;;;;;;0.93;0.50;;;;;;;7.73;63.79;101430.59;10096685;29;20073;-73
2023/04/03 00:48:46;;;;;;;2.85;0.40;;;;;;;7.66;63.15;101434.75;10105714;29;20505;-73
2023/04/03 00:53:56;;;;;;;2.70;0.50;;;;;;;7.69;63.63;101429.16;10113179;29;20072;-72
2023/04/03 00:59:06;;;;;;;2.08;0.77;;;;;;;7.78;63.23;101438.22;10103758;29;20067;-73
2023/04/03 01:04:36;;;;;;;1.27;0.40;;;;;;;7.88;63.27;101442.66;10102579;29;20139;-73
2023/04/03 01:09:39;;;;;;;3.90;0.80;;;;;;;7.86;63.66;101443.75;10111644;29;20044;-73
2023/04/03 01:14:40;;;;;;;6.10;0.55;;;;;;;7.81;64.03;101444.16;10112726;29;20108;-73
2023/04/03 01:19:52;;;;;;;2.15;0.70;;;;;;;7.84;63.35;101446.59;10103081;29;20124;-73
2023/04/03 01:24:54;;;;;;;3.65;0.50;;;;;;;7.89;63.42;101443.50;10109978;29;20128;-74
2023/04/03 01:29:57;;;;;;;3.50;0.73;;;;;;;7.86;63.83;101441.94;10090846;29;20053;-73
2023/04/03 01:34:59;;;;;;;4.97;0.68;;;;;;;7.82;64.23;101445.88;10109838;29;20057;-72
2023/04/03 01:40:00;;;;;;;2.58;0.45;;;;;;;7.78;63.42;101436.41;10100693;29;20472;-73
2023/04/03 01:45:02;;;;;;;2.90;0.70;;;;;;;7.76;63.63;101443.72;10121592;29;20059;-73
2023/04/03 01:50:04;;;;;;;3.00;0.50;;;;;;;7.73;64.73;101439.47;10115613;29;20049;-74
2023/04/03 01:55:06;;;;;;;3.25;0.40;;;;;;;7.69;63.83;101448.72;10106758;29;20056;-73
2023/04/03 02:00:08;;;;;;;2.17;0.52;;;;;;;7.70;64.31;101445.09;10115762;29;20218;-74
2023/04/03 02:05:10;;;;;;;2.63;0.70;;;;;;;7.72;63.66;101453.84;10103036;29;20053;-73
2023/04/03 02:10:12;;;;;;;2.78;0.50;;;;;;;7.65;64.18;101444.63;10107286;29;20072;-74
2023/04/03 02:15:13;;;;;;;2.25;0.50;;;;;;;7.61;64.70;101451.22;10113247;29;20524;-73
2023/04/03 02:20:15;;;;;;;1.98;0.60;;;;;;;7.51;64.22;101445.78;10106616;29;20045;-74
2023/04/03 02:25:17;;;;;;;4.35;0.38;;;;;;;7.41;64.78;101450.22;10107770;29;20052;-73
2023/04/03 02:30:19;;;;;;;3.22;0.70;;;;;;;7.38;64.64;101444.25;10093074;29;20049;-73
2023/04/03 02:35:20;;;;;;;0.50;0.40;;;;;;;7.38;64.31;101449.63;10108884;29;20068;-74
2023/04/03 02:40:22;;;;;;;2.55;0.77;;;;;;;7.36;64.89;101452.41;10114080;29;20048;-73
2023/04/03 02:45:23;;;;;;;4.28;0.50;;;;;;;7.28;64.81;101447.69;10093930;29;20053;-73
2023/04/03 02:50:24;;;;;;;4.05;0.40;;;;;;;7.17;64.88;101449.56;10111901;29;20048;-73
2023/04/03 02:55:26;;;;;;;4.85;0.40;;;;;;;7.08;65.03;101460.03;10076717;29;20129;-73
2023/04/03 03:00:27;;;;;;;2.13;0.43;;;;;;;7.00;64.06;101453.63;10110928;29;20041;-72
2023/04/03 03:05:30;;;;;;;6.57;0.55;;;;;;;7.04;63.08;101461.28;10107897;29;20064;-73
2023/04/03 03:10:31;;;;;;;0.85;0.20;;;;;;;7.06;63.53;101455.81;10103820;29;20049;-73
2023/04/03 03:15:32;;;;;;;1.77;0.30;;;;;;;7.00;63.38;101462.50;10090603;29;20496;-73
2023/04/03 03:20:34;;;;;;;2.35;0.43;;;;;;;6.97;62.96;101460.09;10086200;29;20080;-73
2023/04/03 03:25:41;;;;;;;4.93;0.75;;;;;;;6.96;62.12;101461.06;10105897;29;20059;-73
2023/04/03 03:30:43;;;;;;;4.90;0.20;;;;;;;6.89;62.40;101460.72;10106136;29;20437;-73
2023/04/03 03:35:45;;;;;;;1.70;0.30;;;;;;;6.80;62.23;101466.78;10109206;29;20136;-73
2023/04/03 03:40:48;;;;;;;2.35;0.50;;;;;;;6.67;62.37;101466.06;10112624;29;20124;-73
2023/04/03 03:45:53;;;;;;;1.90;0.40;;;;;;;6.60;62.04;101470.22;10107251;29;20041;-73
2023/04/03 03:50:55;;;;;;;4.75;0.50;;;;;;;6.54;62.39;101472.41;10110495;29;20143;-72
2023/04/03 03:55:56;;;;;;;2.67;0.88;;;;;;;6.40;62.19;101474.44;10113212;29;20057;-73
2023/04/03 04:01:02;;;;;;;3.60;1.10;;;;;;;6.37;62.13;101475.56;10108396;29;20036;-72
2023/04/03 04:06:03;;;;;;;2.42;0.60;;;;;;;6.30;61.91;101490.34;10105162;29;20083;-72
2023/04/03 04:11:05;;;;;;;2.58;0.35;;;;;;;6.18;62.36;101483.28;10108837;29;20104;-73
2023/04/03 04:16:08;;;;;;;6.15;0.40;;;;;;;6.12;62.60;101484.63;10107979;29;20154;-72
2023/04/03 04:21:09;;;;;;;1.55;0.40;;;;;;;6.06;62.23;101487.75;10104415;29;20047;-72
2023/04/03 04:26:11;;;;;;;3.40;0.40;;;;;;;6.09;62.50;101488.38;10087166;29;20524;-72
2023/04/03 04:31:12;;;;;;;5.03;0.55;;;;;;;6.01;62.69;101490.81;10107569;29;20044;-72
2023/04/03 04:36:14;;;;;;;2.97;0.40;;;;;;;5.90;62.84;101496.06;10086279;29;20051;-73
2023/04/03 04:41:17;;;;;;;3.33;0.63;;;;;;;5.85;62.67;101498.25;10106234;29;20085;-73
2023/04/03 04:46:19;;;;;;;1.02;0.32;;;;;;;5.67;62.68;101498.69;10091154;29;20139;-73
2023/04/03 04:51:20;;;;;;;4.38;0.60;;;;;;;5.60;62.57;101505.44;10102067;29;20048;-73
2023/04/03 04:56:22;;;;;;;3.03;0.88;;;;;;;5.49;63.05;101508.91;10112408;29;20472;-64
2023/04/03 05:01:23;;;;;;;1.77;0.40;;;;;;;5.53;63.05;101507.72;10097630;29;20060;-70
2023/04/03 05:06:25;;;;;;;2.97;0.40;;;;;;;5.52;62.60;101513.16;10100690;29;20045;-71
2023/04/03 05:11:26;;;;;;;3.95;0.50;;;;;;;5.48;63.25;101515.19;10106884;29;20069;-71
2023/04/03 05:16:28;;;;;;;3.85;0.50;;;;;;;5.46;63.16;101521.63;10102564;29;20202;-71
2023/04/03 05:21:32;;;;;;;3.00;0.50;;;;;;;5.31;63.58;101524.47;10102158;29;20643;-71
2023/04/03 05:26:33;;;;;;;1.48;0.50;;;;;;;5.23;63.60;101542.81;10102543;29;20721;-71
2023/04/03 05:31:35;;;;;;;4.78;0.70;;;;;;;5.18;63.27;101549.47;10103951;29;20077;-69
2023/04/03 05:36:36;;;;;;;4.65;0.50;;;;;;;5.12;63.44;101542.75;10095103;29;20045;-69
2023/04/03 05:41:38;;;;;;;6.00;1.05;;;;;;;5.12;62.97;101556.09;10103491;29;20044;-68
2023/04/03 05:46:39;;;;;;;4.32;0.88;;;;;;;5.04;63.34;101548.63;10101270;29;20073;-68
2023/04/03 05:51:41;;;;;;;1.98;0.50;;;;;;;4.95;63.38;101552.78;10084686;29;20152;-68
2023/04/03 05:56:42;;;;;;;2.10;0.50;;;;;;;4.97;63.31;101553.53;10088252;29;20576;-68
2023/04/03 06:01:44;;;;;;;2.55;0.40;;;;;;;4.88;64.03;101559.53;10108525;29;20081;-67
2023/04/03 06:06:51;;;;;;;2.08;0.50;;;;;;;4.96;63.70;101562.50;10109029;29;20417;-67
2023/04/03 06:11:53;;;;;;;3.05;0.65;;;;;;;4.95;63.96;101568.78;10110060;29;20567;-68
2023/04/03 06:16:54;;;;;;;4.70;0.80;;;;;;;5.00;63.45;101573.81;10109780;29;20052;-68
2023/04/03 06:21:56;;;;;;;4.28;0.50;;;;;;;5.04;63.35;101585.09;10106090;29;20047;-67
2023/04/03 06:26:58;;;;;;;8.18;1.50;;;;;;;5.07;63.49;101585.72;10107063;29;20048;-67
2023/04/03 06:31:59;;;;;;;2.47;0.70;;;;;;;5.13;63.37;101585.28;10110052;29;20061;-69
2023/04/03 06:37:01;;;;;;;2.08;0.57;;;;;;;5.22;63.18;101593.59;10105625;29;20104;-69
2023/04/03 06:42:02;;;;;;;6.63;1.00;;;;;;;5.29;63.44;101600.16;10107997;29;20048;-67
2023/04/03 06:47:04;;;;;;;4.00;0.85;;;;;;;5.33;63.32;101601.63;10105122;29;20120;-67
2023/04/03 06:52:05;;;;;;;2.15;0.43;;;;;;;5.37;62.97;101603.13;10104820;29;20072;-68
2023/04/03 06:57:07;;;;;;;7.25;0.93;;;;;;;5.38;63.06;101612.84;10106689;29;20065;-68
2023/04/03 07:02:11;;;;;;;4.25;0.88;;;;;;;5.40;63.17;101615.41;10104052;29;20124;-69
2023/04/03 07:07:13;;;;;;;1.63;0.70;;;;;;;5.49;62.82;101622.72;10108131;29;20061;-68
2023/04/03 07:12:14;;;;;;;3.67;0.70;;;;;;;5.53;62.39;101634.88;10103351;29;20153;-68
2023/04/03 07:17:16;;;;;;;6.22;1.42;;;;;;;5.54;63.15;101637.41;10105378;29;20104;-67
2023/04/03 07:22:17;;;;;;;2.97;0.90;;;;;;;5.66;62.35;101645.50;10103742;29;20057;-69
2023/04/03 07:27:19;;;;;;;3.85;0.70;;;;;;;5.82;62.66;101639.88;10105212;29;20540;-68
2023/04/03 07:32:20;;;;;;;7.35;1.27;;;;;;;5.90;62.68;101637.50;10103397;29;20053;-68
2023/04/03 07:37:22;;;;;;;3.92;0.82;;;;;;;6.17;61.93;101641.78;10105386;29;20207;-68
2023/04/03 07:42:23;;;;;;;4.95;0.60;;;;;;;6.17;61.68;101652.47;10103641;29;20401;-67
2023/04/03 07:47:25;;;;;;;4.07;1.35;;;;;;;6.28;61.78;101657.84;10099763;29;20053;-67
2023/04/03 07:52:26;;;;;;;1.55;0.90;;;;;;;6.32;60.90;101654.84;10112684;29;20053;-68
2023/04/03 07:57:27;;;;;;;5.82;0.80;;;;;;;6.36;61.36;101658.13;10102922;29;20530;-67
2023/04/03 08:02:29;;;;;;;2.72;0.60;;;;;;;6.48;61.00;101654.53;10109490;29;20071;-67
2023/04/03 08:07:30;;;;;;;4.60;0.80;;;;;;;6.64;59.90;101662.22;10095414;29;20048;-67
2023/04/03 08:12:32;;;;;;;3.95;0.68;;;;;;;6.75;60.38;101651.56;10105121;29;20052;-69
2023/04/03 08:17:34;;;;;;;2.80;1.33;;;;;;;6.82;59.44;101653.75;10068206;29;20053;-69
2023/04/03 08:22:35;;;;;;;7.68;0.80;;;;;;;6.96;59.65;101666.88;10100303;29;20059;-68
2023/04/03 08:27:37;;;;;;;2.45;0.45;;;;;;;7.21;58.54;101647.09;10102086;29;20092;-66
2023/04/03 08:32:41;;;;;;;2.15;0.50;;;;;;;7.24;58.35;101649.50;10103629;29;20171;-66
2023/04/03 08:37:43;;;;;;;2.25;0.40;;;;;;;7.28;58.53;101645.59;10100571;29;20199;-67
2023/04/03 08:42:56;;;;;;;3.42;0.47;;;;;;;7.37;57.54;101651.22;10101954;29;20072;-67
2023/04/03 08:48:11;;;;;;;1.95;0.60;;;;;;;7.42;57.22;101652.53;10101124;29;20053;-67
2023/04/03 08:53:21;;;;;;;2.45;0.60;;;;;;;7.58;56.53;101653.97;10100668;29;20573;-67
2023/04/03 08:58:29;;;;;;;3.53;0.90;;;;;;;7.59;56.41;101653.00;10104652;29;20052;-67
2023/04/03 09:03:33;;;;;;;3.50;0.57;;;;;;;7.72;55.75;101646.53;10102553;29;20048;-69
2023/04/03 09:08:45;;;;;;;2.70;0.50;;;;;;;7.75;55.85;101656.97;10102891;29;20136;-68
2023/04/03 09:14:32;;;;;;;0.93;0.40;;;;;;;7.89;55.56;101663.03;10106139;29;20104;-68
2023/04/03 09:19:44;;;;;;;3.53;0.50;;;;;;;7.88;55.09;101661.34;10089369;29;20128;-67
2023/04/03 09:24:52;;;;;;;3.67;1.20;;;;;;;7.88;54.66;101666.69;10099649;29;20524;-66
2023/04/03 09:29:56;;;;;;;3.17;0.60;;;;;;;7.96;54.48;101653.53;10105433;29;20160;-67
2023/04/03 09:35:07;;;;;;;1.38;0.40;;;;;;;8.17;53.51;101650.03;10112596;29;20929;-67
2023/04/03 09:40:24;;;;;;;4.57;0.52;;;;;;;8.25;52.98;101650.25;10105938;29;20106;-67
2023/04/03 09:45:28;;;;;;;2.20;0.70;;;;;;;8.27;53.34;101650.94;10113986;29;20045;-68
2023/04/03 09:50:30;;;;;;;3.03;0.98;;;;;;;8.28;52.88;101658.03;10106141;29;20108;-70
2023/04/03 09:55:31;;;;;;;5.82;0.77;;;;;;;8.26;52.89;101649.28;10109710;29;20044;-69
2023/04/03 10:00:35;;;;;;;2.08;0.60;;;;;;;8.45;52.08;101643.22;10088576;29;20048;-68
2023/04/03 10:05:40;;;;;;;4.88;1.23;;;;;;;8.53;51.83;101644.28;10104659;29;20103;-68
2023/04/03 10:10:45;;;;;;;2.92;0.70;;;;;;;8.66;51.64;101652.13;10110078;29;20056;-68
2023/04/03 10:16:03;;;;;;;5.03;0.60;;;;;;;8.90;50.82;101642.94;10097007;29;20041;-68
2023/04/03 10:21:15;;;;;;;4.07;0.60;;;;;;;9.04;50.53;101639.06;10109818;29;20055;-68
2023/04/03 10:26:45;;;;;;;1.85;0.70;;;;;;;9.19;49.74;101628.84;10088141;29;20072;-69
2023/04/03 10:32:25;;;;;;;2.20;0.70;;;;;;;9.46;49.10;101633.59;10105771;29;20044;-68
2023/04/03 10:37:36;;;;;;;1.40;0.57;;;;;;;9.77;48.44;101638.88;10106823;29;20053;-66
2023/04/03 10:42:59;;;;;;;2.17;0.60;;;;;;;10.17;47.54;101632.53;10105412;29;20048;-68
2023/04/03 10:48:17;;;;;;;1.00;0.50;;;;;;;10.42;46.90;101623.91;10109409;29;20049;-69
2023/04/03 10:53:37;;;;;;;3.22;0.60;;;;;;;10.66;45.73;101618.09;10105462;29;20068;-69
2023/04/03 10:58:43;;;;;;;0.70;0.55;;;;;;;10.89;44.96;101612.34;10105075;29;20152;-69
2023/04/03 11:03:55;;;;;;;3.33;0.75;;;;;;;11.28;44.17;101596.06;10099687;29;20155;-69
2023/04/03 11:09:06;;;;;;;3.58;0.80;;;;;;;11.34;43.85;101611.59;10104011;29;20148;-69
2023/04/03 11:14:16;;;;;;;3.17;0.95;;;;;;;11.55;43.06;101592.47;10110002;29;20045;-69
2023/04/03 11:19:23;;;;;;;1.23;0.45;;;;;;;11.81;42.47;101592.59;10103185;29;20101;-69
2023/04/03 11:24:29;;;;;;;2.53;0.98;;;;;;;11.93;41.60;101581.59;10098499;29;20056;-69
2023/04/03 11:29:37;;;;;;;2.58;0.50;;;;;;;12.03;40.70;101579.69;10107255;29;20053;-69
2023/04/03 11:34:43;;;;;;;1.90;0.73;;;;;;;11.95;40.64;101582.28;10106679;29;20056;-69
2023/04/03 11:39:56;;;;;;;1.30;0.40;;;;;;;11.80;40.50;101581.97;10107839;29;20143;-69
2023/04/03 11:45:29;;;;;;;3.25;0.52;;;;;;;12.15;39.71;101577.59;10112013;29;20060;-69
2023/04/03 11:50:41;;;;;;;1.45;0.60;;;;;;;12.36;39.83;101571.84;10101192;29;20048;-68
2023/04/03 11:55:48;;;;;;;3.53;0.65;;;;;;;12.38;39.32;101569.84;10106258;29;20060;-68
2023/04/03 12:00:57;;;;;;;1.73;0.52;;;;;;;12.78;38.69;101560.31;10105164;29;20048;-69
2023/04/03 12:06:11;;;;;;;1.33;0.50;;;;;;;13.07;38.01;101559.94;10104394;29;20067;-69
2023/04/03 12:11:12;;;;;;;1.40;0.50;;;;;;;12.77;37.99;101562.16;10104751;29;20056;-69
2023/04/03 12:16:28;;;;;;;3.00;0.85;;;;;;;12.84;38.58;101547.03;10102257;29;20160;-68
2023/04/03 12:21:36;;;;;;;0.70;0.45;;;;;;;12.96;37.60;101547.59;10103442;29;20096;-69
2023/04/03 12:26:59;;;;;;;1.45;0.40;;;;;;;13.11;37.11;101537.00;10105353;29;20067;-70
2023/04/03 12:32:07;;;;;;;0.93;0.50;;;;;;;13.12;36.35;101546.81;10102932;29;20065;-69
2023/04/03 12:37:21;;;;;;;0.98;0.40;;;;;;;13.41;35.37;101537.47;10086107;29;20064;-70
2023/04/03 12:42:25;;;;;;;1.30;0.40;;;;;;;14.01;34.72;101542.59;10105422;29;20045;-71
2023/04/03 12:47:37;;;;;;;1.23;0.32;;;;;;;13.93;34.73;101528.25;10104631;29;20060;-70
2023/04/03 12:52:47;;;;;;;0.88;0.40;;;;;;;14.00;35.19;101518.44;10102078;29;20136;-69
2023/04/03 12:57:48;;;;;;;1.55;0.40;;;;;;;14.22;34.66;101514.22;10107810;29;20591;-69
2023/04/03 13:02:50;;;;;;;1.55;0.50;;;;;;;14.20;34.20;101505.41;10104105;29;20071;-69
2023/04/03 13:07:59;;;;;;;4.45;0.90;;;;;;;14.06;33.73;101506.97;10099679;29;20361;-69
2023/04/03 13:13:09;;;;;;;1.73;0.60;;;;;;;14.34;33.22;101502.00;10106671;29;20054;-71
2023/04/03 13:18:28;;;;;;;1.92;0.60;;;;;;;14.55;33.37;101500.59;10109831;29;20132;-70
2023/04/03 13:23:31;;;;;;;2.17;0.70;;;;;;;14.51;33.71;101499.25;10117807;29;20057;-69
2023/04/03 13:28:34;;;;;;;3.22;0.70;;;;;;;14.65;33.25;101495.84;10119130;29;20048;-70
2023/04/03 13:33:39;;;;;;;2.17;0.75;;;;;;;14.51;32.76;101491.13;10087370;29;20048;-72
2023/04/03 13:38:41;;;;;;;4.10;0.73;;;;;;;14.68;32.44;101501.75;10114859;29;20057;-71
2023/04/03 13:43:42;;;;;;;3.28;0.60;;;;;;;15.04;32.02;101487.72;10098839;29;20069;-71
2023/04/03 13:48:47;;;;;;;4.40;0.50;;;;;;;15.06;31.80;101484.84;10114721;29;20108;-71
2023/04/03 13:53:56;;;;;;;2.63;0.82;;;;;;;15.04;31.38;101479.59;10111721;29;20100;-70
2023/04/03 13:59:20;;;;;;;0.77;0.30;;;;;;;15.21;31.37;101465.97;10102890;29;20544;-71
2023/04/03 14:04:27;;;;;;;1.42;0.40;;;;;;;15.54;31.11;101463.03;10097876;29;20060;-70
2023/04/03 14:09:29;;;;;;;1.50;0.30;;;;;;;15.60;31.08;101465.88;10095911;29;20552;-68
2023/04/03 14:14:33;;;;;;;0.80;0.30;;;;;;;15.61;30.95;101455.88;10100989;29;20130;-69
2023/04/03 14:19:35;;;;;;;1.20;0.30;;;;;;;15.73;31.30;101451.72;10107929;29;20452;-70
2023/04/03 14:24:38;;;;;;;0.95;0.20;;;;;;;15.75;30.67;101460.50;10111422;29;20056;-70
2023/04/03 14:29:39;;;;;;;3.75;0.55;;;;;;;16.11;30.54;101453.56;10099730;29;20060;-70
2023/04/03 14:34:42;;;;;;;3.42;0.30;;;;;;;16.51;30.64;101452.28;10109014;29;20056;-72
2023/04/03 14:39:45;;;;;;;2.83;0.30;;;;;;;17.04;30.38;101443.97;10102239;29;20052;-72
2023/04/03 14:44:46;;;;;;;1.40;0.65;;;;;;;17.64;29.54;101439.16;10129526;29;20111;-70
2023/04/03 14:49:48;;;;;;;0.70;0.30;;;;;;;19.05;27.89;101429.94;10114548;29;20195;-72
2023/04/03 14:54:50;;;;;;;4.32;0.30;;;;;;;19.41;27.21;101419.53;10104845;29;20472;-70
2023/04/03 14:59:52;;;;;;;1.73;0.30;;;;;;;20.18;26.14;101425.41;10118345;29;20041;-71
2023/04/03 15:04:55;;;;;;;2.75;0.30;;;;;;;20.15;25.72;101427.72;10106878;29;20060;-71
2023/04/03 15:09:57;;;;;;;0.45;0.15;;;;;;;18.94;26.52;101425.97;10111503;29;20571;-71
2023/04/03 15:14:58;;;;;;;0.90;0.20;;;;;;;18.02;27.10;101431.50;10092982;29;20068;-71
2023/04/03 15:20:12;;;;;;;0.38;0.20;;;;;;;17.21;27.30;101441.88;10107120;29;20060;-70
2023/04/03 15:25:15;;;;;;;0.98;0.20;;;;;;;16.65;28.07;101439.72;10106879;29;20121;-70
2023/04/03 15:30:18;;;;;;;3.45;0.32;;;;;;;17.46;27.00;101434.19;10108456;29;20979;-70
2023/04/03 15:35:20;;;;;;;1.55;0.17;;;;;;;17.42;26.90;101431.00;10106285;29;20199;-70
2023/04/03 15:40:21;;;;;;;1.08;0.20;;;;;;;16.91;27.57;101433.81;10111509;29;20092;-71
2023/04/03 15:45:23;;;;;;;0.65;0.20;;;;;;;16.12;28.04;101439.81;10118553;29;20452;-70
2023/04/03 15:50:24;;;;;;;1.95;0.20;;;;;;;15.73;28.40;101421.91;10106747;29;20057;-71
2023/04/03 15:55:28;;;;;;;1.52;0.40;;;;;;;15.41;28.47;101428.41;10106469;29;21087;-70
2023/04/03 16:00:32;;;;;;;3.20;0.22;;;;;;;15.17;28.35;101433.00;10109350;29;20105;-70
2023/04/03 16:05:35;;;;;;;1.27;0.20;;;;;;;14.78;28.66;101431.19;10112015;29;20041;-69
2023/04/03 16:10:37;;;;;;;0.73;0.30;;;;;;;14.67;28.96;101434.25;10105409;29;20045;-70
2023/04/03 16:15:40;;;;;;;1.02;0.25;;;;;;;14.39;29.27;101442.81;10104472;29;20508;-69
2023/04/03 16:20:43;;;;;;;2.58;0.50;;;;;;;14.22;29.19;101438.47;10095519;29;20434;-69
2023/04/03 16:25:46;;;;;;;13.75;1.83;;;;;;;14.28;29.20;101441.31;10112901;29;20044;-69
2023/04/03 16:30:49;;;;;;;0.95;0.40;;;;;;;14.20;29.50;101437.81;10121753;29;20413;-70
2023/04/03 16:35:51;;;;;;;4.10;0.45;;;;;;;14.04;29.70;101436.81;10118897;29;20572;-68
2023/04/03 16:40:56;;;;;;;0.77;0.25;;;;;;;13.76;30.61;101443.59;10127450;29;20049;-69
2023/04/03 16:45:57;;;;;;;0.77;0.25;;;;;;;13.63;29.74;101434.16;10136215;29;20128;-70
2023/04/03 16:50:59;;;;;;;0.47;0.20;;;;;;;13.53;30.00;101438.06;10125848;29;20056;-69
2023/04/03 16:56:01;;;;;;;1.25;0.30;;;;;;;13.54;30.07;101439.72;10131027;29;20049;-69
2023/04/03 17:01:12;;;;;;;1.08;0.30;;;;;;;13.28;30.25;101446.09;10129163;29;20075;-68
2023/04/03 17:06:19;;;;;;;3.58;0.40;;;;;;;13.15;31.08;101451.13;10136558;29;20131;-71
2023/04/03 17:11:21;;;;;;;1.60;0.30;;;;;;;12.73;31.43;101466.34;10150574;29;20060;-69
2023/04/03 17:16:24;;;;;;;1.80;0.30;;;;;;;12.42;31.55;101468.72;11010122;23;20076;-71
2023/04/03 17:21:26;;;;;;;0.73;0.32;;;;;;;11.99;32.16;101468.66;10177473;29;20047;-71
2023/04/03 17:26:28;;;;;;;2.78;0.50;;;;;;;11.52;32.16;101468.91;10172739;29;20048;-69
2023/04/03 17:31:29;;;;;;;1.35;0.40;;;;;;;11.18;32.36;101477.69;10171224;29;20076;-72
2023/04/03 17:36:32;;;;;;;1.75;0.30;;;;;;;10.88;32.80;101484.22;10151575;29;20044;-69
2023/04/03 17:41:34;;;;;;;1.30;0.40;;;;;;;10.55;33.21;101482.97;10140874;29;20629;-71
2023/04/03 17:46:35;;;;;;;3.05;0.30;;;;;;;10.18;33.85;101491.84;10154924;29;20048;-71
2023/04/03 17:51:37;;;;;;;1.98;0.82;;;;;;;9.95;34.43;101494.00;10144434;29;20049;-70
2023/04/03 17:56:38;;;;;;;2.10;0.50;;;;;;;9.53;35.55;101504.03;10135483;29;20055;-70
2023/04/03 18:01:42;;;;;;;4.70;0.50;;;;;;;9.44;35.71;101506.72;10167649;29;20084;-71
2023/04/03 18:06:47;;;;;;;2.10;0.40;;;;;;;9.12;36.28;101505.97;10140104;29;20045;-70
2023/04/03 18:11:50;;;;;;;1.30;0.40;;;;;;;8.90;36.26;101509.72;10147869;29;20048;-72
2023/04/03 18:16:52;;;;;;;1.08;0.38;;;;;;;8.80;36.44;101524.91;10156085;29;20071;-72
2023/04/03 18:22:00;;;;;;;3.40;0.50;;;;;;;8.57;36.71;101520.72;10145711;29;20052;-72
2023/04/03 18:27:08;;;;;;;1.83;0.45;;;;;;;8.34;36.83;101527.06;10144629;29;20092;-71
2023/04/03 18:32:13;;;;;;;1.10;0.28;;;;;;;8.16;37.39;101522.47;10162868;29;20045;-71
2023/04/03 18:37:15;;;;;;;2.45;0.50;;;;;;;8.02;37.48;101523.66;10149712;29;20071;-71
2023/04/03 18:42:20;;;;;;;1.73;0.40;;;;;;;7.90;37.49;101522.84;10164511;29;20482;-71
2023/04/03 18:47:21;;;;;;;1.92;0.88;;;;;;;7.69;37.59;101522.81;10157481;29;20052;-72
2023/04/03 18:52:24;;;;;;;1.83;0.30;;;;;;;7.59;38.43;101527.25;10146877;29;20100;-72
2023/04/03 18:57:25;;;;;;;3.13;0.40;;;;;;;7.49;38.36;101527.16;10159362;29;20080;-72
2023/04/03 19:02:27;;;;;;;6.65;1.42;;;;;;;7.43;38.32;101535.69;10138817;29;20060;-72
2023/04/03 19:07:29;;;;;;;5.55;0.65;;;;;;;7.35;39.13;101547.84;10155144;29;20057;-71
2023/04/03 19:12:30;;;;;;;1.38;0.45;;;;;;;7.25;39.38;101549.59;10152668;29;20047;-72
2023/04/03 19:17:31;;;;;;;1.30;0.30;;;;;;;7.13;39.50;101561.28;10162869;29;20052;-73
2023/04/03 19:22:33;;;;;;;2.38;0.80;;;;;;;7.07;39.44;101564.44;10151920;29;20047;-74
2023/04/03 19:27:36;;;;;;;4.13;0.50;;;;;;;6.95;39.69;101568.94;10145676;29;20060;-74
2023/04/03 19:32:37;;;;;;;2.60;0.40;;;;;;;6.84;40.45;101575.13;10136170;29;20059;-74
2023/04/03 19:37:39;;;;;;;4.05;0.40;;;;;;;6.76;40.65;101577.56;10135611;29;20531;-72
2023/04/03 19:42:41;;;;;;;5.22;0.50;;;;;;;6.64;40.61;101579.38;10125119;29;20096;-74
2023/04/03 19:47:43;;;;;;;1.58;0.50;;;;;;;6.53;40.96;101582.03;10139358;29;20048;-73
2023/04/03 19:52:45;;;;;;;4.18;0.40;;;;;;;6.44;40.97;101578.28;10162658;29;20049;-71
2023/04/03 19:57:48;;;;;;;2.28;0.50;;;;;;;6.38;41.62;101583.22;10144504;29;20044;-73
2023/04/03 20:02:50;;;;;;;1.00;0.30;;;;;;;6.28;41.65;101580.41;10173040;29;20052;-75
2023/04/03 20:07:51;;;;;;;1.88;0.30;;;;;;;6.18;42.41;101582.94;10126261;29;20449;-74
2023/04/03 20:12:53;;;;;;;1.55;0.50;;;;;;;6.14;41.92;101585.00;10127662;29;20048;-75
2023/04/03 20:17:56;;;;;;;2.65;0.30;;;;;;;6.05;42.63;101590.19;10153669;29;20055;-74
2023/04/03 20:22:58;;;;;;;1.52;0.40;;;;;;;5.99;42.62;101587.97;10141574;29;20064;-74
2023/04/03 20:27:59;;;;;;;2.25;0.47;;;;;;;5.92;43.49;101585.75;10134041;29;20083;-74
2023/04/03 20:33:02;;;;;;;6.85;0.40;;;;;;;5.85;43.32;101589.81;10143664;29;20062;-72
2023/04/03 20:38:06;;;;;;;2.08;0.50;;;;;;;5.75;43.32;101586.97;10150817;29;20075;-75
2023/04/03 20:43:08;;;;;;;1.95;0.50;;;;;;;5.65;43.60;101588.63;10165071;29;20052;-74
2023/04/03 20:48:11;;;;;;;1.83;0.40;;;;;;;5.56;43.82;101587.47;10151499;29;20045;-73
2023/04/03 20:53:16;;;;;;;2.72;0.50;;;;;;;5.52;44.74;101587.84;10125469;29;20048;-75
2023/04/03 20:58:18;;;;;;;2.78;0.60;;;;;;;5.42;44.52;101598.31;10147431;29;20071;-76
2023/04/03 21:03:22;;;;;;;0.77;0.30;;;;;;;5.38;44.69;101593.31;10146111;29;20048;-76
2023/04/03 21:09:01;;;;;;;0.93;0.38;;;;;;;5.27;44.67;101586.97;10146707;29;20067;-74
2023/04/03 21:14:41;;;;;;;7.95;1.70;;;;;;;5.18;44.56;101587.63;10150698;29;20568;-73
2023/04/03 21:19:44;;;;;;;4.63;0.75;;;;;;;5.16;44.66;101584.22;10175580;28;20040;-73
2023/04/03 21:24:47;;;;;;;2.53;0.40;;;;;;;5.10;45.05;101588.16;10152794;29;20049;-73
2023/04/03 21:29:49;;;;;;;3.67;0.68;;;;;;;5.01;45.71;101587.97;10136754;29;20044;-75
2023/04/03 21:34:50;;;;;;;5.38;0.57;;;;;;;4.97;45.57;101577.50;10159325;29;20059;-75
2023/04/03 21:39:52;;;;;;;1.40;0.30;;;;;;;4.91;45.35;101585.94;10170660;29;20063;-74
2023/04/03 21:44:53;;;;;;;1.05;0.60;;;;;;;4.90;45.46;101578.94;10174318;29;20052;-74
2023/04/03 21:49:55;;;;;;;2.72;0.40;;;;;;;4.86;45.50;101580.13;10159630;29;20044;-73
2023/04/03 21:54:56;;;;;;;2.42;0.60;;;;;;;4.81;46.06;101570.75;10168611;29;20108;-74
2023/04/03 21:59:58;;;;;;;2.20;0.70;;;;;;;4.71;45.88;101575.84;10169263;29;20048;-72
2023/04/03 22:05:00;;;;;;;2.67;0.43;;;;;;;4.67;46.48;101567.22;10178340;29;20059;-72
2023/04/03 22:10:02;;;;;;;0.93;0.40;;;;;;;4.60;46.40;101570.41;10176581;29;20067;-72
2023/04/03 22:15:04;;;;;;;3.72;0.70;;;;;;;4.53;46.68;101570.00;10182225;29;20060;-72
2023/04/03 22:20:06;;;;;;;2.50;0.85;;;;;;;4.43;46.81;101559.16;10160351;29;20052;-71
2023/04/03 22:25:08;;;;;;;0.80;0.35;;;;;;;4.35;46.62;101564.16;10163305;29;21020;-73
2023/04/03 22:30:10;;;;;;;6.28;0.80;;;;;;;4.30;46.98;101563.59;10182413;29;20052;-73
2023/04/03 22:35:12;;;;;;;5.22;0.50;;;;;;;4.22;47.24;101568.59;10169157;29;20049;-72
2023/04/03 22:40:13;;;;;;;2.05;0.45;;;;;;;4.18;47.41;101567.94;10187409;29;20048;-72
2023/04/03 22:45:15;;;;;;;5.68;0.80;;;;;;;4.13;47.62;101562.94;10185565;29;20056;-72
2023/04/03 22:50:16;;;;;;;2.45;0.50;;;;;;;4.12;47.36;101560.38;10164741;29;20057;-73
2023/04/03 22:55:18;;;;;;;1.73;0.57;;;;;;;4.12;47.70;101558.56;10175891;29;20044;-72
2023/04/03 23:00:20;;;;;;;0.70;0.50;;;;;;;4.07;47.78;101559.84;10183743;29;20052;-72
2023/04/03 23:05:21;;;;;;;1.77;0.70;;;;;;;4.05;47.79;101557.31;10161264;29;20116;-72
2023/04/03 23:10:23;;;;;;;2.63;0.60;;;;;;;3.92;48.03;101564.41;10180785;29;20059;-73
2023/04/03 23:15:24;;;;;;;2.60;0.60;;;;;;;3.86;48.09;101567.47;10162148;29;20052;-72
2023/04/03 23:20:26;;;;;;;2.35;1.05;;;;;;;3.84;48.11;101564.91;10160722;29;20041;-72
2023/04/03 23:25:27;;;;;;;4.22;0.50;;;;;;;3.80;48.16;101566.06;10174791;29;20059;-72
2023/04/03 23:30:28;;;;;;;4.95;0.60;;;;;;;3.75;48.43;101562.84;10186453;29;20044;-71